createdAt,value
2018-07-13T00:01:16.389Z,15.13
2018-07-13T00:03:43.554Z,16.33
2018-07-13T00:06:10.745Z,19.63
2018-07-13T00:08:37.871Z,16.73
2018-07-13T00:11:05.036Z,16.23
2018-07-13T00:13:37.585Z,18.40
2018-07-13T00:16:04.709Z,15.83
2018-07-13T00:18:31.837Z,15.13
2018-07-13T00:20:59.024Z,17.30
2018-07-13T00:23:26.202Z,17.27
2018-07-13T00:25:53.336Z,19.50
2018-07-13T00:28:20.440Z,15.23
2018-07-13T00:30:47.573Z,17.37
2018-07-13T00:33:14.688Z,15.83
2018-07-13T00:35:41.836Z,17.83
2018-07-13T00:38:08.984Z,17.60
2018-07-13T00:40:36.092Z,16.27
2018-07-13T00:43:03.544Z,14.73
2018-07-13T00:45:30.672Z,15.00
2018-07-13T00:47:57.793Z,14.60
2018-07-13T00:50:24.936Z,14.07
2018-07-13T00:52:52.045Z,13.73
2018-07-13T00:55:19.151Z,16.83
2018-07-13T00:57:46.262Z,18.70
2018-07-13T01:00:13.378Z,14.13
2018-07-13T01:02:40.540Z,14.80
2018-07-13T01:05:07.665Z,18.37
2018-07-13T01:07:34.804Z,14.73
2018-07-13T01:10:01.955Z,14.27
2018-07-13T01:12:29.071Z,15.17
2018-07-13T01:14:56.236Z,14.87
2018-07-13T01:17:24.468Z,16.87
2018-07-13T01:19:51.632Z,15.33
2018-07-13T01:22:18.747Z,15.77
2018-07-13T01:24:45.872Z,14.27
2018-07-13T01:27:13.012Z,15.87
2018-07-13T01:29:40.140Z,17.30
2018-07-13T01:32:07.269Z,15.23
2018-07-13T01:34:34.376Z,16.43
2018-07-13T01:37:01.497Z,14.20
2018-07-13T01:39:28.616Z,14.57
2018-07-13T01:41:55.753Z,17.03
2018-07-13T01:44:22.860Z,15.23
2018-07-13T01:46:49.968Z,15.67
2018-07-13T01:49:17.079Z,16.37
2018-07-13T01:51:44.251Z,16.93
2018-07-13T01:54:11.362Z,14.73
2018-07-13T01:56:38.455Z,16.40
2018-07-13T01:59:05.573Z,16.73
2018-07-13T02:01:32.680Z,18.07
2018-07-13T02:03:59.792Z,17.57
2018-07-13T02:06:26.928Z,17.47
2018-07-13T02:08:54.037Z,16.13
2018-07-13T02:11:21.193Z,16.77
2018-07-13T02:13:48.624Z,18.57
2018-07-13T02:16:15.736Z,17.07
2018-07-13T02:18:42.855Z,16.53
2018-07-13T02:21:09.974Z,18.43
2018-07-13T02:23:37.145Z,17.17
2018-07-13T02:26:04.381Z,19.30
2018-07-13T02:28:31.537Z,17.77
2018-07-13T02:30:58.692Z,17.73
2018-07-13T02:33:25.839Z,17.87
2018-07-13T02:35:52.952Z,15.87
2018-07-13T02:38:20.060Z,17.70
2018-07-13T02:40:47.172Z,18.17
2018-07-13T02:43:14.291Z,18.07
2018-07-13T02:45:41.412Z,19.40
2018-07-13T02:48:08.536Z,19.47
2018-07-13T02:50:35.656Z,18.60
2018-07-13T02:53:02.775Z,19.47
2018-07-13T02:55:29.912Z,17.90
2018-07-13T02:57:57.021Z,19.20
2018-07-13T03:00:24.160Z,17.47
2018-07-13T03:02:51.295Z,16.67
2018-07-13T03:05:18.420Z,15.67
2018-07-13T03:07:45.528Z,19.53
2018-07-13T03:10:12.637Z,18.73
2018-07-13T03:12:39.764Z,17.37
2018-07-13T03:15:06.907Z,18.47
2018-07-13T03:17:34.020Z,18.93
2018-07-13T03:20:01.157Z,16.80
2018-07-13T03:22:28.301Z,17.37
2018-07-13T03:24:55.423Z,17.67
2018-07-13T03:27:22.552Z,17.20
2018-07-13T03:29:49.700Z,19.07
2018-07-13T03:32:16.808Z,16.63
2018-07-13T03:34:43.923Z,19.80
2018-07-13T03:37:11.053Z,19.47
2018-07-13T03:39:38.215Z,19.20
2018-07-13T03:42:05.344Z,19.60
2018-07-13T03:44:32.464Z,18.33
2018-07-13T03:46:59.639Z,21.10
2018-07-13T03:49:26.756Z,20.73
2018-07-13T03:51:53.870Z,20.60
2018-07-13T03:54:21.000Z,22.00
2018-07-13T03:56:48.116Z,19.40
2018-07-13T03:59:15.258Z,21.90
2018-07-13T04:01:42.496Z,23.30
2018-07-13T04:04:09.624Z,23.77
2018-07-13T04:06:36.816Z,25.23
2018-07-13T04:09:06.380Z,22.83
2018-07-13T04:11:33.493Z,20.10
2018-07-13T04:14:00.646Z,22.00
2018-07-13T04:16:27.776Z,21.23
2018-07-13T04:18:54.906Z,22.50
2018-07-13T04:21:22.084Z,23.47
2018-07-13T04:23:49.237Z,22.80
2018-07-13T04:26:16.396Z,20.03
2018-07-13T04:28:43.540Z,20.80
2018-07-13T04:31:10.672Z,20.63
2018-07-13T04:33:37.781Z,21.97
2018-07-13T04:36:04.894Z,23.30
2018-07-13T04:38:32.018Z,22.63
2018-07-13T04:40:59.213Z,22.17
2018-07-13T04:43:26.300Z,24.03
2018-07-13T04:45:53.449Z,25.17
2018-07-13T04:48:20.612Z,24.00
2018-07-13T04:50:47.771Z,44.97
2018-07-13T04:53:14.933Z,35.37
2018-07-13T04:55:42.076Z,50.30
2018-07-13T04:58:09.228Z,32.37
2018-07-13T05:00:36.413Z,133.17
2018-07-13T05:03:03.552Z,45.60
2018-07-13T05:05:30.701Z,50.83
2018-07-13T05:07:57.832Z,62.20
2018-07-13T05:10:24.970Z,39.50
2018-07-13T05:12:52.095Z,28.97
2018-07-13T05:15:19.240Z,41.13
2018-07-13T05:17:46.399Z,38.93
2018-07-13T05:20:13.545Z,37.23
2018-07-13T05:22:40.707Z,43.17
2018-07-13T05:25:08.472Z,53.70
2018-07-13T05:27:35.632Z,42.60
2018-07-13T05:30:03.233Z,36.77
2018-07-13T05:32:30.393Z,51.90
2018-07-13T05:34:58.044Z,44.90
2018-07-13T05:37:25.857Z,48.00
2018-07-13T05:39:52.988Z,50.87
2018-07-13T05:42:20.157Z,30.93
2018-07-13T05:44:47.305Z,71.30
2018-07-13T05:47:14.480Z,37.10
2018-07-13T05:49:41.717Z,53.90
2018-07-13T05:52:08.813Z,35.63
2018-07-13T05:54:35.961Z,90.60
2018-07-13T05:57:03.122Z,64.57
2018-07-13T05:59:30.324Z,37.70
2018-07-13T06:01:57.489Z,44.10
2018-07-13T06:04:24.673Z,52.93
2018-07-13T06:06:51.939Z,43.10
2018-07-13T06:09:19.076Z,31.10
2018-07-13T06:11:46.229Z,47.87
2018-07-13T06:14:13.367Z,32.70
2018-07-13T06:16:40.468Z,86.50
2018-07-13T06:19:07.604Z,106.80
2018-07-13T06:21:34.730Z,344.67
2018-07-13T06:24:02.729Z,65.23
2018-07-13T06:26:29.851Z,208.43
2018-07-13T06:28:56.982Z,106.23
2018-07-13T06:31:24.129Z,127.60
2018-07-13T06:33:51.257Z,189.50
2018-07-13T06:36:18.413Z,108.40
2018-07-13T06:38:45.556Z,188.70
2018-07-13T06:41:12.796Z,532.07
2018-07-13T06:43:39.944Z,74.00
2018-07-13T06:46:07.068Z,409.07
2018-07-13T06:48:34.229Z,43.47
2018-07-13T06:51:01.401Z,149.37
2018-07-13T06:53:28.601Z,182.33
2018-07-13T06:55:55.721Z,73.70
2018-07-13T06:58:34.396Z,93.13
2018-07-13T07:01:02.440Z,30.80
2018-07-13T07:03:31.080Z,18.67
2018-07-13T07:06:00.227Z,349.37
2018-07-13T07:08:27.613Z,70.63
2018-07-13T07:10:54.920Z,262.80
2018-07-13T07:13:29.941Z,47.90
2018-07-13T07:15:57.328Z,342.63
2018-07-13T07:18:24.461Z,151.80
2018-07-13T07:20:51.604Z,148.07
2018-07-13T07:23:18.750Z,72.97
2018-07-13T07:25:45.901Z,437.47
2018-07-13T07:28:13.049Z,18.23
2018-07-13T07:30:40.284Z,281.40
2018-07-13T07:33:07.493Z,8.20
2018-07-13T07:35:34.650Z,98.60
2018-07-13T07:38:01.771Z,62.93
2018-07-13T07:40:29.020Z,9.80
2018-07-13T07:42:56.176Z,30.07
2018-07-13T07:45:23.327Z,14.77
2018-07-13T07:47:50.437Z,51.80
2018-07-13T07:50:17.600Z,45.27
2018-07-13T07:52:44.737Z,6.30
2018-07-13T07:55:11.865Z,33.60
2018-07-13T07:57:39.087Z,192.17
2018-07-13T08:00:06.193Z,7.80
2018-07-13T08:02:33.340Z,6.50
2018-07-13T08:05:00.452Z,64.57
2018-07-13T08:07:27.631Z,6.17
2018-07-13T08:09:54.712Z,255.33
2018-07-13T08:12:21.823Z,281.20
2018-07-13T08:14:48.992Z,28.20
2018-07-13T08:17:16.126Z,5.73
2018-07-13T08:19:43.330Z,5.47
2018-07-13T08:22:13.272Z,5.87
2018-07-13T08:24:40.474Z,21.87
2018-07-13T08:27:11.217Z,7.10
2018-07-13T08:29:39.445Z,13.03
2018-07-13T08:32:06.624Z,94.17
2018-07-13T08:34:33.740Z,6.53
2018-07-13T08:37:01.168Z,53.13
2018-07-13T08:39:28.325Z,286.43
2018-07-13T08:41:55.464Z,63.10
2018-07-13T08:44:22.602Z,82.93
2018-07-13T08:46:49.831Z,50.30
2018-07-13T08:49:16.985Z,40.83
2018-07-13T08:51:44.292Z,52.63
2018-07-13T08:54:11.392Z,15.20
2018-07-13T08:56:38.552Z,31.03
2018-07-13T08:59:05.784Z,8.00
2018-07-13T09:01:32.999Z,7.37
2018-07-13T09:04:00.119Z,72.40
2018-07-13T09:06:27.356Z,5.77
2018-07-13T09:08:54.428Z,10.63
2018-07-13T09:11:21.581Z,18.87
2018-07-13T09:13:48.919Z,10.17
2018-07-13T09:16:16.046Z,28.43
2018-07-13T09:18:43.192Z,9.40
2018-07-13T09:21:10.341Z,32.30
2018-07-13T09:23:37.500Z,26.30
2018-07-13T09:26:04.668Z,5.53
2018-07-13T09:28:31.807Z,23.07
2018-07-13T09:30:58.940Z,242.10
2018-07-13T09:33:26.061Z,8.13
2018-07-13T09:35:53.232Z,8.10
2018-07-13T09:38:20.432Z,12.30
2018-07-13T09:40:47.529Z,296.80
2018-07-13T09:43:14.641Z,100.67
2018-07-13T09:45:41.771Z,26.47
2018-07-13T09:48:08.920Z,53.90
2018-07-13T09:50:36.120Z,11.50
2018-07-13T09:53:03.256Z,5.20
2018-07-13T09:55:30.410Z,5.00
2018-07-13T09:57:57.536Z,44.43
2018-07-13T10:00:29.308Z,9.10
2018-07-13T10:02:56.452Z,5.30
2018-07-13T10:05:23.617Z,5.63
2018-07-13T10:07:50.788Z,44.10
2018-07-13T10:10:17.932Z,7.33
2018-07-13T10:12:45.074Z,10.17
2018-07-13T10:15:12.214Z,12.87
2018-07-13T10:17:39.350Z,5.60
2018-07-13T10:20:06.494Z,26.27
2018-07-13T10:22:34.032Z,5.17
2018-07-13T10:25:02.516Z,3.47
2018-07-13T10:27:31.735Z,24.87
2018-07-13T10:29:59.905Z,8.57
2018-07-13T10:32:27.061Z,23.53
2018-07-13T10:34:54.251Z,4.40
2018-07-13T10:37:21.524Z,69.70
2018-07-13T10:39:48.668Z,140.13
2018-07-13T10:42:15.792Z,14.20
2018-07-13T10:44:42.917Z,95.33
2018-07-13T10:47:10.060Z,10.60
2018-07-13T10:49:37.196Z,41.07
2018-07-13T10:52:04.355Z,37.50
2018-07-13T10:54:31.473Z,4.77
2018-07-13T10:56:58.656Z,48.87
2018-07-13T10:59:25.744Z,3.87
2018-07-13T11:01:52.901Z,13.17
2018-07-13T11:04:20.025Z,4.63
2018-07-13T11:06:47.132Z,6.53
2018-07-13T11:09:14.376Z,6.57
2018-07-13T11:11:41.493Z,13.63
2018-07-13T11:14:09.153Z,5.37
2018-07-13T11:16:36.314Z,10.07
2018-07-13T11:19:03.452Z,5.60
2018-07-13T11:21:30.576Z,47.07
2018-07-13T11:23:57.707Z,3.30
2018-07-13T11:26:24.888Z,22.57
2018-07-13T11:28:52.012Z,9.43
2018-07-13T11:31:19.149Z,39.00
2018-07-13T11:33:46.321Z,8.73
2018-07-13T11:36:13.440Z,2.47
2018-07-13T11:38:40.589Z,2.97
2018-07-13T11:41:07.733Z,6.43
2018-07-13T11:43:34.873Z,10.43
2018-07-13T11:46:02.010Z,3.67
2018-07-13T11:48:29.121Z,14.70
2018-07-13T11:50:56.228Z,26.03
2018-07-13T11:53:23.356Z,3.70
2018-07-13T11:55:50.460Z,38.00
2018-07-13T11:58:17.577Z,5.03
2018-07-13T12:00:44.717Z,166.63
2018-07-13T12:03:11.832Z,446.07
2018-07-13T12:05:38.936Z,676.47
2018-07-13T12:08:06.068Z,771.33
2018-07-13T12:10:33.260Z,892.10
2018-07-13T12:13:00.420Z,702.07
2018-07-13T12:15:27.540Z,997.60
2018-07-13T12:17:54.662Z,598.40
2018-07-13T12:20:21.785Z,810.47
2018-07-13T12:22:48.927Z,972.80
2018-07-13T12:25:16.046Z,868.40
2018-07-13T12:27:43.158Z,866.77
2018-07-13T12:30:10.273Z,669.30
2018-07-13T12:32:37.436Z,731.53
2018-07-13T12:35:04.595Z,999.90
2018-07-13T12:37:31.727Z,986.43
2018-07-13T12:39:58.920Z,987.73
2018-07-13T12:42:26.007Z,991.13
2018-07-13T12:44:53.133Z,999.90
2018-07-13T12:47:20.257Z,999.90
2018-07-13T12:49:47.389Z,869.90
2018-07-13T12:52:14.504Z,926.50
2018-07-13T12:54:41.734Z,999.90
2018-07-13T12:57:08.839Z,999.90
2018-07-13T12:59:36.052Z,999.90
2018-07-13T13:02:03.136Z,937.30
2018-07-13T13:04:30.270Z,999.90
2018-07-13T13:06:57.412Z,897.13
2018-07-13T13:09:24.529Z,999.90
2018-07-13T13:11:51.648Z,988.90
2018-07-13T13:14:18.778Z,999.90
2018-07-13T13:16:45.937Z,956.27
2018-07-13T13:19:13.110Z,983.23
2018-07-13T13:21:40.276Z,847.40
2018-07-13T13:24:07.365Z,742.40
2018-07-13T13:26:34.480Z,993.30
2018-07-13T13:29:01.634Z,999.03
2018-07-13T13:31:28.769Z,972.70
2018-07-13T13:33:55.900Z,977.13
2018-07-13T13:36:23.075Z,988.90
2018-07-13T13:38:50.153Z,846.67
2018-07-13T13:41:17.264Z,863.63
2018-07-13T13:43:44.376Z,914.53
2018-07-13T13:46:11.533Z,984.13
2018-07-13T13:48:38.653Z,913.67
2018-07-13T13:51:05.785Z,995.80
2018-07-13T13:53:32.935Z,999.90
2018-07-13T13:56:00.062Z,748.37
2018-07-13T13:58:27.180Z,977.57
2018-07-13T14:00:54.337Z,982.50
2018-07-13T14:03:21.460Z,779.73
2018-07-13T14:05:48.649Z,982.43
2018-07-13T14:08:16.456Z,908.00
2018-07-13T14:10:43.596Z,869.73
2018-07-13T14:13:10.720Z,904.33
2018-07-13T14:15:37.980Z,944.53
2018-07-13T14:18:05.144Z,809.27
2018-07-13T14:20:32.245Z,979.97
2018-07-13T14:22:59.433Z,946.03
2018-07-13T14:25:26.631Z,908.03
2018-07-13T14:27:53.748Z,935.03
2018-07-13T14:30:23.100Z,930.77
2018-07-13T14:32:50.212Z,819.20
2018-07-13T14:35:17.348Z,916.50
2018-07-13T14:37:44.499Z,924.13
2018-07-13T14:40:11.648Z,887.90
2018-07-13T14:42:38.785Z,854.50
2018-07-13T14:45:05.950Z,805.00
2018-07-13T14:47:33.092Z,860.03
2018-07-13T14:50:00.220Z,942.30
2018-07-13T14:52:27.376Z,891.17
2018-07-13T14:54:54.521Z,913.67
2018-07-13T14:57:21.645Z,976.80
2018-07-13T14:59:49.004Z,967.77
2018-07-13T15:02:16.074Z,853.60
2018-07-13T15:04:43.213Z,771.07
2018-07-13T15:07:10.446Z,737.57
2018-07-13T15:09:37.565Z,755.73
2018-07-13T15:12:04.700Z,946.60
2018-07-13T15:14:31.868Z,747.17
2018-07-13T15:16:58.994Z,758.07
2018-07-13T15:19:26.113Z,861.33
2018-07-13T15:21:53.342Z,896.50
2018-07-13T15:24:20.388Z,783.97
2018-07-13T15:26:47.508Z,964.97
2018-07-13T15:29:14.656Z,765.40
2018-07-13T15:31:41.808Z,948.47
2018-07-13T15:34:08.960Z,908.33
2018-07-13T15:36:36.104Z,921.80
2018-07-13T15:39:04.019Z,914.10
2018-07-13T15:41:31.132Z,729.20
2018-07-13T15:43:58.264Z,849.70
2018-07-13T15:46:25.398Z,869.63
2018-07-13T15:48:52.536Z,867.80
2018-07-13T15:51:19.721Z,906.20
2018-07-13T15:53:46.904Z,930.50
2018-07-13T15:56:14.024Z,794.17
2018-07-13T15:58:41.201Z,899.00
2018-07-13T16:01:08.344Z,681.27
2018-07-13T16:03:35.520Z,743.47
2018-07-13T16:06:02.670Z,864.63
2018-07-13T16:08:29.828Z,848.70
2018-07-13T16:10:56.957Z,591.90
2018-07-13T16:13:24.069Z,827.57
2018-07-13T16:15:51.181Z,688.63
2018-07-13T16:18:18.297Z,876.67
2018-07-13T16:20:45.407Z,931.27
2018-07-13T16:23:12.557Z,974.00
2018-07-13T16:25:39.684Z,826.17
2018-07-13T16:28:06.847Z,781.57
2018-07-13T16:30:33.940Z,937.07
2018-07-13T16:33:01.072Z,758.37
2018-07-13T16:35:28.197Z,871.00
2018-07-13T16:37:55.308Z,959.50
2018-07-13T16:40:22.440Z,771.93
2018-07-13T16:42:49.914Z,950.67
2018-07-13T16:45:17.028Z,673.40
2018-07-13T16:47:44.164Z,816.73
2018-07-13T16:50:11.320Z,801.87
2018-07-13T16:52:38.465Z,782.70
2018-07-13T16:55:05.592Z,883.43
2018-07-13T16:57:32.731Z,846.00
2018-07-13T16:59:59.847Z,946.43
2018-07-13T17:02:26.969Z,641.53
2018-07-13T17:04:54.138Z,779.73
2018-07-13T17:07:21.268Z,832.23
2018-07-13T17:09:48.400Z,848.13
2018-07-13T17:12:15.540Z,719.60
2018-07-13T17:14:42.680Z,968.43
2018-07-13T17:17:09.804Z,999.90
2018-07-13T17:19:36.936Z,919.40
2018-07-13T17:22:04.388Z,930.23
2018-07-13T17:24:31.512Z,941.67
2018-07-13T17:26:58.635Z,749.73
2018-07-13T17:29:25.760Z,651.73
2018-07-13T17:31:52.885Z,795.87
2018-07-13T17:34:19.996Z,706.00
2018-07-13T17:36:47.154Z,775.43
2018-07-13T17:39:14.375Z,845.87
2018-07-13T17:41:41.490Z,746.07
2018-07-13T17:44:08.621Z,785.20
2018-07-13T17:46:35.761Z,804.83
2018-07-13T17:49:02.892Z,831.43
2018-07-13T17:51:30.008Z,448.10
2018-07-13T17:53:57.141Z,894.40
2018-07-13T17:56:24.292Z,789.47
2018-07-13T17:58:51.452Z,450.23
2018-07-13T18:01:18.576Z,636.50
2018-07-13T18:03:45.708Z,837.23
2018-07-13T18:06:12.829Z,727.00
2018-07-13T18:08:39.960Z,765.97
2018-07-13T18:11:07.092Z,747.43
2018-07-13T18:13:34.256Z,631.20
2018-07-13T18:16:01.380Z,736.83
2018-07-13T18:18:28.508Z,598.87
2018-07-13T18:20:55.632Z,657.60
2018-07-13T18:23:23.000Z,807.77
2018-07-13T18:25:50.143Z,623.00
2018-07-13T18:28:17.341Z,842.47
2018-07-13T18:30:44.427Z,654.83
2018-07-13T18:33:11.549Z,626.83
2018-07-13T18:35:38.660Z,608.90
2018-07-13T18:38:05.804Z,835.47
2018-07-13T18:40:32.933Z,824.23
2018-07-13T18:43:00.043Z,915.07
2018-07-13T18:45:27.176Z,830.70
2018-07-13T18:47:54.298Z,815.00
2018-07-13T18:50:21.428Z,796.57
2018-07-13T18:52:48.800Z,843.13
2018-07-13T18:55:15.933Z,716.20
2018-07-13T18:57:43.054Z,666.90
2018-07-13T19:00:10.197Z,802.27
2018-07-13T19:02:37.325Z,863.03
2018-07-13T19:05:04.460Z,903.27
2018-07-13T19:07:31.568Z,744.50
2018-07-13T19:09:58.689Z,855.17
2018-07-13T19:12:25.812Z,815.40
2018-07-13T19:14:52.936Z,935.73
2018-07-13T19:17:20.104Z,997.60
2018-07-13T19:19:47.215Z,776.23
2018-07-13T19:22:14.336Z,924.10
2018-07-13T19:24:41.495Z,986.97
2018-07-13T19:27:08.622Z,971.67
2018-07-13T19:29:35.828Z,980.63
2018-07-13T19:32:02.976Z,982.93
2018-07-13T19:34:30.197Z,915.63
2018-07-13T19:36:57.273Z,946.37
2018-07-13T19:39:24.409Z,999.90
2018-07-13T19:41:51.549Z,949.17
2018-07-13T19:44:18.673Z,999.90
2018-07-13T19:46:45.801Z,999.90
2018-07-13T19:49:12.916Z,999.90
2018-07-13T19:51:40.098Z,999.90
2018-07-13T19:54:07.180Z,875.90
2018-07-13T19:56:34.344Z,999.90
2018-07-13T19:59:01.464Z,999.90
2018-07-13T20:01:28.576Z,942.73
2018-07-13T20:03:55.700Z,772.63
2018-07-13T20:06:22.832Z,632.87
2018-07-13T20:08:50.029Z,506.00
2018-07-13T20:11:17.174Z,740.40
2018-07-13T20:13:44.289Z,716.67
2018-07-13T20:16:11.452Z,937.87
2018-07-13T20:18:38.556Z,999.90
2018-07-13T20:21:06.495Z,291.17
2018-07-13T20:23:33.612Z,536.47
2018-07-13T20:26:00.777Z,143.13
2018-07-13T20:28:27.904Z,308.03
2018-07-13T20:30:55.037Z,218.47
2018-07-13T20:33:22.212Z,403.37
2018-07-13T20:35:49.320Z,255.57
2018-07-13T20:38:16.452Z,398.47
2018-07-13T20:40:43.576Z,112.60
2018-07-13T20:43:10.697Z,121.77
2018-07-13T20:45:37.815Z,347.87
2018-07-13T20:48:04.976Z,186.60
2018-07-13T20:50:32.112Z,162.03
2018-07-13T20:52:59.227Z,158.27
2018-07-13T20:55:26.328Z,151.57
2018-07-13T20:57:53.488Z,150.33
2018-07-13T21:00:20.698Z,78.40
2018-07-13T21:02:48.107Z,126.03
2018-07-13T21:05:15.224Z,27.13
2018-07-13T21:07:42.344Z,78.53
2018-07-13T21:10:09.544Z,38.10
2018-07-13T21:12:36.660Z,35.17
2018-07-13T21:15:04.177Z,28.33
2018-07-13T21:17:31.293Z,35.60
2018-07-13T21:19:58.461Z,44.13
2018-07-13T21:22:25.536Z,59.07
2018-07-13T21:24:52.712Z,32.13
2018-07-13T21:27:19.791Z,33.53
2018-07-13T21:29:46.915Z,43.47
2018-07-13T21:32:14.044Z,28.33
2018-07-13T21:34:41.165Z,21.47
2018-07-13T21:37:08.285Z,26.93
2018-07-13T21:39:35.396Z,17.20
2018-07-13T21:42:02.517Z,36.07
2018-07-13T21:44:29.639Z,7.67
2018-07-13T21:46:56.816Z,7.57
2018-07-13T21:49:23.925Z,12.43
2018-07-13T21:51:51.065Z,6.83
2018-07-13T21:54:18.192Z,10.53
2018-07-13T21:56:45.344Z,10.57
2018-07-13T21:59:12.476Z,7.30
2018-07-13T22:01:39.715Z,6.70
2018-07-13T22:04:06.840Z,13.73
2018-07-13T22:06:33.941Z,5.83
2018-07-13T22:09:01.123Z,7.50
2018-07-13T22:11:28.253Z,6.63
2018-07-13T22:13:55.416Z,6.63
2018-07-13T22:16:22.555Z,6.43
2018-07-13T22:18:49.693Z,6.80
2018-07-13T22:21:16.831Z,7.10
2018-07-13T22:23:43.946Z,6.27
2018-07-13T22:26:11.055Z,7.30
2018-07-13T22:28:38.156Z,8.00
2018-07-13T22:31:05.336Z,7.07
2018-07-13T22:33:32.517Z,5.90
2018-07-13T22:35:59.632Z,8.10
2018-07-13T22:38:26.756Z,6.77
2018-07-13T22:40:53.870Z,11.53
2018-07-13T22:43:21.025Z,10.07
2018-07-13T22:45:48.133Z,8.20
2018-07-13T22:48:15.239Z,7.17
2018-07-13T22:50:42.365Z,12.10
2018-07-13T22:53:09.497Z,6.77
2018-07-13T22:55:36.680Z,9.27
2018-07-13T22:58:03.821Z,7.50
2018-07-13T23:00:30.961Z,8.47
2018-07-13T23:02:58.088Z,6.90
2018-07-13T23:05:25.280Z,7.13
2018-07-13T23:07:52.420Z,7.03
2018-07-13T23:10:19.547Z,7.00
2018-07-13T23:12:46.692Z,6.70
2018-07-13T23:15:13.855Z,7.23
2018-07-13T23:17:40.976Z,7.97
2018-07-13T23:20:08.101Z,8.60
2018-07-13T23:22:35.221Z,12.53
2018-07-13T23:25:02.344Z,8.23
2018-07-13T23:27:29.453Z,7.90
2018-07-13T23:29:56.569Z,8.20
2018-07-13T23:32:23.693Z,8.27
2018-07-13T23:34:50.804Z,8.77
2018-07-13T23:37:17.913Z,8.80
2018-07-13T23:39:45.076Z,7.93
2018-07-13T23:42:12.586Z,8.13
2018-07-13T23:44:39.721Z,8.03
2018-07-13T23:47:06.832Z,7.90
2018-07-13T23:49:33.956Z,8.20
2018-07-13T23:52:01.101Z,8.67
2018-07-13T23:54:28.252Z,8.97
2018-07-13T23:56:55.392Z,31.73
2018-07-13T23:59:22.532Z,17.50
